Time;durP1;ratioP1;P1;durP2;ratioP2;P2;SDS_P1;SDS_P2;PMS_P1;PMS_P2;Temp;Humidity;BMP_temperature;BMP_pressure;BME280_temperature;BME280_humidity;BME280_pressure;Samples;Min_cycle;Max_cycle;Signal;HPM_P1;HPM_P2
2023/02/18 00:00:22;;;;;;;3.73;2.93;;;17.40;62.80;;;;;;5056015;28;20196;-50
2023/02/18 00:03:22;;;;;;;3.10;2.80;;;17.40;62.90;;;;;;5088590;28;20690;-50
2023/02/18 00:06:00;;;;;;;2.73;2.53;;;17.40;62.80;;;;;;5081209;28;20200;-50
2023/02/18 00:08:31;;;;;;;3.10;2.80;;;17.40;62.90;;;;;;5089070;28;20625;-50
2023/02/18 00:11:06;;;;;;;3.20;2.90;;;17.40;62.90;;;;;;5088056;28;20598;-50
2023/02/18 00:13:36;;;;;;;3.37;3.03;;;17.40;62.90;;;;;;5086053;28;20211;-50
2023/02/18 00:16:09;;;;;;;4.07;2.97;;;17.40;62.90;;;;;;5066240;28;20223;-50
2023/02/18 00:18:39;;;;;;;4.23;3.20;;;17.40;62.90;;;;;;5061381;28;20275;-50
2023/02/18 00:21:09;;;;;;;3.63;3.00;;;17.40;62.90;;;;;;5072304;28;20332;-50
2023/02/18 00:23:41;;;;;;;2.70;2.50;;;17.40;63.50;;;;;;5031990;28;20196;-50
2023/02/18 00:26:14;;;;;;;3.23;2.93;;;17.40;62.90;;;;;;5067577;28;20197;-50
2023/02/18 00:28:47;;;;;;;4.60;3.17;;;17.40;62.90;;;;;;5032964;28;20218;-50
2023/02/18 00:31:23;;;;;;;3.17;2.87;;;17.40;62.90;;;;;;5051640;28;20229;-50
2023/02/18 00:33:56;;;;;;;3.37;3.00;;;17.40;62.90;;;;;;5034770;28;20217;-50
2023/02/18 00:36:26;;;;;;;3.60;3.07;;;17.40;62.90;;;;;;5054593;28;20197;-50
2023/02/18 00:39:00;;;;;;;5.00;2.87;;;17.40;63.50;;;;;;5071584;28;20182;-50
2023/02/18 00:41:31;;;;;;;2.93;2.63;;;17.40;62.90;;;;;;5069698;28;20241;-50
2023/02/18 00:44:01;;;;;;;3.27;2.97;;;17.40;62.90;;;;;;5072379;28;20182;-50
2023/02/18 00:46:33;;;;;;;4.07;3.40;;;17.40;62.90;;;;;;5071938;28;20197;-50
2023/02/18 00:49:05;;;;;;;5.30;3.63;;;17.40;62.90;;;;;;5055060;28;20202;-50
2023/02/18 00:51:34;;;;;;;3.43;3.13;;;17.40;62.90;;;;;;5047030;28;20595;-49
2023/02/18 00:54:04;;;;;;;3.27;2.97;;;17.40;62.90;;;;;;5055081;28;20200;-50
2023/02/18 00:56:37;;;;;;;3.13;2.83;;;17.40;62.90;;;;;;5071426;28;20285;-50
2023/02/18 00:59:07;;;;;;;3.90;3.20;;;17.40;62.90;;;;;;5072128;28;20251;-50
2023/02/18 01:01:38;;;;;;;3.63;3.20;;;17.40;62.90;;;;;;5069494;28;20208;-50
2023/02/18 01:04:10;;;;;;;3.40;2.90;;;17.40;62.90;;;;;;5062246;28;20202;-50
2023/02/18 01:06:38;;;;;;;3.03;2.73;;;17.40;62.90;;;;;;5068411;28;20206;-50
2023/02/18 01:09:09;;;;;;;4.00;3.40;;;17.40;62.90;;;;;;5071252;28;20552;-50
2023/02/18 01:11:39;;;;;;;4.50;3.10;;;17.40;62.90;;;;;;5068577;28;20185;-50
2023/02/18 01:14:07;;;;;;;4.33;3.27;;;17.40;62.90;;;;;;5071595;28;20194;-50
2023/02/18 01:16:40;;;;;;;3.17;2.87;;;17.40;62.90;;;;;;5051864;28;20221;-50
2023/02/18 01:19:11;;;;;;;3.30;3.00;;;17.40;62.90;;;;;;5070631;28;20622;-50
2023/02/18 01:21:42;;;;;;;3.30;3.00;;;17.40;63.50;;;;;;5084477;28;20247;-50
2023/02/18 01:24:14;;;;;;;4.07;3.63;;;17.40;62.90;;;;;;5090835;28;20398;-50
2023/02/18 01:26:43;;;;;;;3.37;2.97;;;17.40;62.80;;;;;;5091235;28;20219;-50
2023/02/18 01:29:17;;;;;;;3.30;3.00;;;17.40;62.90;;;;;;5070853;28;20658;-50
2023/02/18 01:31:45;;;;;;;3.63;3.33;;;17.40;62.90;;;;;;5088279;28;20197;-50
2023/02/18 01:34:15;;;;;;;3.23;2.93;;;17.40;62.80;;;;;;5090168;28;20214;-50
2023/02/18 01:36:45;;;;;;;2.90;2.70;;;17.40;62.80;;;;;;5086647;28;20311;-50
2023/02/18 01:39:13;;;;;;;4.03;3.03;;;17.40;62.80;;;;;;5074921;28;20197;-50
2023/02/18 01:41:45;;;;;;;3.40;3.10;;;17.40;62.80;;;;;;5085940;28;20236;-50
2023/02/18 01:44:23;;;;;;;3.13;2.87;;;17.40;62.90;;;;;;5079101;28;20701;-50
2023/02/18 01:46:56;;;;;;;3.37;2.90;;;17.40;62.80;;;;;;5073691;28;20193;-50
2023/02/18 01:49:33;;;;;;;3.60;2.90;;;17.40;62.90;;;;;;5084542;28;20185;-50
2023/02/18 01:52:23;;;;;;;2.80;2.50;;;17.40;62.90;;;;;;5063937;28;20220;-50
2023/02/18 01:54:56;;;;;;;3.10;2.80;;;17.40;62.80;;;;;;5048809;28;20630;-50
2023/02/18 01:57:37;;;;;;;3.30;3.00;;;17.40;62.90;;;;;;5085089;28;20205;-50
2023/02/18 02:00:15;;;;;;;3.30;3.00;;;17.40;62.90;;;;;;5069561;28;20549;-50
2023/02/18 02:02:50;;;;;;;3.17;2.83;;;17.40;62.90;;;;;;5050175;28;20193;-50
2023/02/18 02:05:33;;;;;;;3.20;2.50;;;17.40;63.00;;;;;;5063917;28;20297;-50
2023/02/18 02:08:21;;;;;;;3.27;2.90;;;17.40;63.00;;;;;;5069283;28;20245;-50
2023/02/18 02:11:21;;;;;;;3.30;3.00;;;17.40;62.90;;;;;;5068702;28;20754;-50
2023/02/18 02:14:05;;;;;;;3.07;2.70;;;17.40;63.00;;;;;;5086934;28;20213;-50
2023/02/18 02:17:01;;;;;;;2.90;2.70;;;17.40;62.90;;;;;;5085989;28;20569;-49
2023/02/18 02:19:52;;;;;;;2.67;2.47;;;17.40;63.00;;;;;;5072903;28;20193;-50
2023/02/18 02:22:59;;;;;;;2.67;2.47;;;17.40;63.00;;;;;;5056526;28;20268;-50
2023/02/18 02:26:14;;;;;;;3.00;2.70;;;17.40;62.90;;;;;;5064325;28;20285;-50
2023/02/18 02:29:20;;;;;;;3.17;2.43;;;17.40;63.00;;;;;;5067287;28;20701;-50
2023/02/18 02:32:17;;;;;;;2.70;2.50;;;17.40;63.00;;;;;;5073782;28;20194;-50
2023/02/18 02:35:24;;;;;;;2.80;2.60;;;17.40;63.00;;;;;;5060733;28;20201;-50
2023/02/18 02:38:22;;;;;;;3.07;2.30;;;17.40;63.00;;;;;;5059201;28;20188;-50
2023/02/18 02:41:30;;;;;;;2.67;2.47;;;17.40;63.00;;;;;;5066227;28;20201;-50
2023/02/18 02:44:35;;;;;;;3.40;2.67;;;17.40;63.00;;;;;;5069688;28;20506;-50
2023/02/18 02:47:48;;;;;;;3.20;2.90;;;17.30;63.10;;;;;;4996074;28;20227;-50
2023/02/18 02:50:52;;;;;;;2.77;2.30;;;17.30;62.90;;;;;;5068830;28;20280;-50
2023/02/18 02:53:38;;;;;;;2.70;2.50;;;17.40;62.90;;;;;;5065743;28;20242;-50
2023/02/18 02:56:23;;;;;;;2.87;2.63;;;17.30;62.90;;;;;;5072365;28;20189;-50
2023/02/18 02:59:05;;;;;;;2.93;2.47;;;17.30;63.00;;;;;;5061059;28;20221;-50
2023/02/18 03:02:24;;;;;;;2.50;2.07;;;17.40;63.00;;;;;;5076945;28;20609;-50
2023/02/18 03:05:28;;;;;;;3.50;2.80;;;17.40;62.90;;;;;;5016905;28;20227;-50
2023/02/18 03:08:24;;;;;;;2.60;2.40;;;17.40;63.00;;;;;;5073000;28;20184;-50
2023/02/18 03:11:06;;;;;;;2.67;2.47;;;17.40;63.00;;;;;;5055167;28;20217;-50
2023/02/18 03:13:55;;;;;;;2.63;2.37;;;17.30;63.00;;;;;;5081696;28;20247;-50
2023/02/18 03:17:03;;;;;;;2.53;2.33;;;17.30;63.10;;;;;;5066014;28;20521;-50
2023/02/18 03:19:57;;;;;;;2.70;2.50;;;17.30;63.00;;;;;;5069697;28;20205;-50
2023/02/18 03:22:37;;;;;;;2.77;2.47;;;17.30;62.90;;;;;;5066003;28;20286;-50
2023/02/18 03:25:07;;;;;;;2.80;2.17;;;17.30;63.00;;;;;;5074586;28;20196;-50
2023/02/18 03:27:45;;;;;;;2.97;2.70;;;17.30;63.10;;;;;;5082973;28;20189;-50
2023/02/18 03:30:20;;;;;;;3.57;2.03;;;17.30;63.00;;;;;;5091305;28;20192;-50
2023/02/18 03:32:56;;;;;;;2.30;2.10;;;17.40;63.00;;;;;;5092279;28;20217;-50
2023/02/18 03:35:39;;;;;;;2.63;2.30;;;17.40;63.10;;;;;;5073844;28;20185;-50
2023/02/18 03:38:43;;;;;;;2.67;2.43;;;17.30;62.90;;;;;;5073746;28;20201;-50
2023/02/18 03:41:19;;;;;;;2.77;2.57;;;17.40;63.00;;;;;;5086400;28;20573;-50
2023/02/18 03:43:55;;;;;;;2.70;2.33;;;17.30;62.90;;;;;;5086898;28;20227;-50
2023/02/18 03:46:28;;;;;;;2.70;2.30;;;17.30;63.00;;;;;;5072284;28;20215;-50
2023/02/18 03:48:58;;;;;;;2.27;2.10;;;17.30;63.00;;;;;;5071816;28;20189;-50
2023/02/18 03:51:28;;;;;;;2.10;1.97;;;17.30;62.90;;;;;;5089042;28;20621;-50
2023/02/18 03:53:56;;;;;;;3.37;2.57;;;17.40;63.00;;;;;;5089640;28;20642;-50
2023/02/18 03:56:26;;;;;;;2.40;2.20;;;17.30;62.90;;;;;;5061856;28;20586;-50
2023/02/18 03:58:56;;;;;;;2.43;2.23;;;17.40;63.00;;;;;;5084392;28;20204;-50
2023/02/18 04:01:27;;;;;;;2.10;1.87;;;17.30;63.00;;;;;;5077604;28;20232;-50
2023/02/18 04:03:54;;;;;;;2.13;1.93;;;17.30;62.90;;;;;;5075093;28;20208;-50
2023/02/18 04:06:24;;;;;;;3.20;2.50;;;17.30;63.30;;;;;;5069706;28;20209;-50
2023/02/18 04:08:54;;;;;;;2.57;1.87;;;17.30;62.90;;;;;;5063710;28;20212;-50
2023/02/18 04:11:25;;;;;;;2.37;2.17;;;17.30;62.90;;;;;;5085759;28;20182;-50
2023/02/18 04:13:53;;;;;;;1.87;1.60;;;17.30;62.90;;;;;;5079554;28;20204;-50
2023/02/18 04:16:23;;;;;;;2.67;2.43;;;17.30;62.90;;;;;;5087032;28;20201;-50
2023/02/18 04:18:53;;;;;;;2.00;1.80;;;17.30;62.90;;;;;;5091316;28;20228;-50
2023/02/18 04:21:23;;;;;;;2.13;1.80;;;17.30;62.90;;;;;;5080195;28;20237;-50
2023/02/18 04:23:54;;;;;;;2.07;1.87;;;17.40;63.00;;;;;;5050303;28;20195;-50
2023/02/18 04:26:24;;;;;;;2.07;1.87;;;17.30;62.90;;;;;;5064986;28;20197;-50
2023/02/18 04:28:53;;;;;;;2.07;1.87;;;17.30;62.90;;;;;;5063738;28;20214;-50
2023/02/18 04:31:22;;;;;;;1.67;1.57;;;17.40;62.90;;;;;;5071889;28;20200;-50
2023/02/18 04:33:52;;;;;;;2.40;2.20;;;17.40;62.90;;;;;;5067181;28;20217;-50
2023/02/18 04:36:22;;;;;;;1.80;1.70;;;17.30;62.90;;;;;;5070747;28;20189;-50
2023/02/18 04:38:53;;;;;;;1.70;1.60;;;17.30;62.90;;;;;;5071507;28;20189;-50
2023/02/18 04:41:21;;;;;;;1.80;1.70;;;17.30;62.90;;;;;;5067945;28;20214;-50
2023/02/18 04:44:01;;;;;;;2.17;1.87;;;17.30;62.90;;;;;;5063924;28;20197;-50
2023/02/18 04:46:32;;;;;;;1.50;1.40;;;17.30;62.90;;;;;;5070799;28;20221;-50
2023/02/18 04:49:04;;;;;;;1.50;1.40;;;17.30;63.00;;;;;;5052231;28;20212;-50
2023/02/18 04:51:36;;;;;;;1.20;1.10;;;17.30;63.60;;;;;;5065838;28;20282;-50
2023/02/18 04:54:13;;;;;;;1.60;1.40;;;17.30;62.90;;;;;;5070412;28;20221;-50
2023/02/18 04:56:45;;;;;;;2.07;1.50;;;17.30;62.90;;;;;;5070260;28;20189;-50
2023/02/18 04:59:15;;;;;;;1.23;1.13;;;17.30;63.00;;;;;;5069645;28;20204;-50
2023/02/18 05:01:45;;;;;;;1.50;1.40;;;17.30;63.00;;;;;;5060081;28;20203;-50
2023/02/18 05:04:13;;;;;;;1.93;1.23;;;17.30;62.90;;;;;;5055682;28;20255;-50
2023/02/18 05:06:44;;;;;;;1.40;1.30;;;17.30;63.00;;;;;;5052012;28;20281;-50
2023/02/18 05:09:12;;;;;;;1.30;1.20;;;17.30;63.00;;;;;;5070492;28;20255;-50
2023/02/18 05:11:44;;;;;;;1.57;1.37;;;17.30;63.00;;;;;;5037777;28;20537;-50
2023/02/18 05:14:14;;;;;;;2.30;0.80;;;17.30;63.00;;;;;;5062918;28;20222;-50
2023/02/18 05:16:59;;;;;;;1.30;0.97;;;17.30;63.00;;;;;;5040443;28;20289;-50
2023/02/18 05:19:30;;;;;;;1.53;1.43;;;17.30;62.90;;;;;;5053449;28;20183;-50
2023/02/18 05:21:59;;;;;;;0.83;0.83;;;17.30;63.00;;;;;;5076759;28;20356;-50
2023/02/18 05:24:37;;;;;;;1.20;1.00;;;17.30;63.00;;;;;;5089627;28;20199;-50
2023/02/18 05:27:08;;;;;;;1.00;1.00;;;17.30;63.00;;;;;;5093576;28;20253;-50
2023/02/18 05:29:40;;;;;;;1.00;0.90;;;17.30;63.00;;;;;;5062563;28;20277;-50
2023/02/18 05:32:11;;;;;;;1.47;1.00;;;17.30;63.00;;;;;;5086638;28;20614;-48
2023/02/18 05:34:45;;;;;;;1.07;0.70;;;17.30;63.00;;;;;;5056936;28;20205;-50
2023/02/18 05:37:21;;;;;;;1.30;0.80;;;17.30;63.00;;;;;;5089063;28;20201;-50
2023/02/18 05:39:49;;;;;;;0.80;0.80;;;17.30;63.10;;;;;;5083179;28;20208;-50
2023/02/18 05:42:22;;;;;;;0.83;0.83;;;17.30;63.10;;;;;;5091570;28;20630;-50
2023/02/18 05:44:55;;;;;;;1.40;1.30;;;17.30;63.10;;;;;;5082481;28;20208;-50
2023/02/18 05:47:27;;;;;;;0.77;0.70;;;17.30;63.10;;;;;;5068101;28;20212;-50
2023/02/18 05:49:57;;;;;;;1.03;0.90;;;17.30;63.10;;;;;;5088071;28;20212;-50
2023/02/18 05:52:39;;;;;;;2.30;0.87;;;17.30;63.10;;;;;;5087619;28;20312;-50
2023/02/18 05:55:11;;;;;;;1.10;0.87;;;17.30;63.00;;;;;;5083015;28;20690;-50
2023/02/18 05:57:43;;;;;;;0.70;0.70;;;17.30;63.00;;;;;;5089879;28;20501;-50
2023/02/18 06:00:13;;;;;;;0.70;0.70;;;17.30;63.00;;;;;;5088245;28;20215;-50
2023/02/18 06:02:47;;;;;;;1.00;0.60;;;17.30;63.00;;;;;;5088767;28;20259;-50
2023/02/18 06:05:18;;;;;;;0.70;0.70;;;17.20;62.90;;;;;;5090783;28;20232;-50
2023/02/18 06:07:48;;;;;;;0.90;0.90;;;17.30;63.00;;;;;;5082374;28;20198;-50
2023/02/18 06:10:18;;;;;;;0.60;0.60;;;17.20;62.90;;;;;;5087273;28;20622;-50
2023/02/18 06:12:46;;;;;;;0.93;0.60;;;17.30;63.00;;;;;;5085605;28;20193;-50
2023/02/18 06:15:19;;;;;;;0.50;0.50;;;17.30;63.60;;;;;;5089035;28;20201;-50
2023/02/18 06:17:47;;;;;;;1.27;0.70;;;17.20;62.90;;;;;;5082591;28;20420;-50
2023/02/18 06:20:18;;;;;;;0.93;0.93;;;17.20;63.00;;;;;;5077735;28;20189;-50
2023/02/18 06:22:50;;;;;;;1.73;0.70;;;17.20;62.90;;;;;;5089164;28;20196;-50
2023/02/18 06:25:21;;;;;;;0.73;0.60;;;17.20;62.90;;;;;;5065760;28;20185;-50
2023/02/18 06:27:53;;;;;;;0.60;0.60;;;17.20;63.00;;;;;;5075607;28;20186;-50
2023/02/18 06:30:24;;;;;;;0.43;0.43;;;17.20;63.00;;;;;;5077899;28;20189;-50
2023/02/18 06:32:55;;;;;;;0.97;0.80;;;17.20;63.60;;;;;;5071903;28;20284;-50
2023/02/18 06:35:26;;;;;;;0.50;0.50;;;17.20;63.00;;;;;;5078546;28;20233;-45
2023/02/18 06:37:58;;;;;;;0.60;0.60;;;17.20;62.90;;;;;;5094470;28;20288;-47
2023/02/18 06:40:32;;;;;;;0.50;0.50;;;17.20;62.90;;;;;;5083910;28;20213;-46
2023/02/18 06:43:03;;;;;;;0.40;0.40;;;17.20;62.90;;;;;;5071493;28;20197;-46
2023/02/18 06:45:33;;;;;;;0.40;0.40;;;17.20;62.90;;;;;;5087668;28;20610;-44
2023/02/18 06:48:04;;;;;;;0.47;0.47;;;17.20;62.90;;;;;;5087490;28;20271;-46
2023/02/18 06:50:35;;;;;;;0.50;0.50;;;17.20;63.00;;;;;;5088524;28;20685;-45
2023/02/18 06:53:06;;;;;;;0.57;0.57;;;17.30;63.10;;;;;;5086126;28;20239;-46
2023/02/18 06:55:37;;;;;;;0.40;0.40;;;17.20;63.10;;;;;;5087430;28;20196;-45
2023/02/18 06:58:13;;;;;;;0.53;0.53;;;17.20;63.00;;;;;;5086392;28;20201;-45
2023/02/18 07:00:44;;;;;;;0.30;0.30;;;17.20;63.00;;;;;;5085006;28;20195;-45
2023/02/18 07:03:15;;;;;;;0.60;0.40;;;17.20;63.00;;;;;;5087304;28;20193;-45
2023/02/18 07:05:45;;;;;;;0.70;0.50;;;17.20;63.70;;;;;;5065241;28;20650;-45
2023/02/18 07:08:17;;;;;;;0.40;0.37;;;17.20;63.00;;;;;;5088424;28;20224;-45
2023/02/18 07:10:46;;;;;;;0.40;0.40;;;17.20;63.00;;;;;;5063787;28;20259;-45
2023/02/18 07:13:16;;;;;;;0.43;0.43;;;17.20;63.60;;;;;;5086025;28;20506;-45
2023/02/18 07:15:43;;;;;;;0.57;0.57;;;17.20;62.90;;;;;;5062838;28;20197;-45
2023/02/18 07:18:15;;;;;;;0.40;0.40;;;17.20;63.60;;;;;;5088427;28;20193;-45
2023/02/18 07:20:46;;;;;;;1.13;0.33;;;17.30;63.00;;;;;;5060832;28;20236;-45
2023/02/18 07:23:18;;;;;;;0.70;0.47;;;17.20;62.90;;;;;;5068447;28;20202;-45
2023/02/18 07:25:48;;;;;;;0.67;0.67;;;17.20;62.80;;;;;;5064730;28;20654;-45
2023/02/18 07:28:18;;;;;;;0.43;0.40;;;17.20;62.80;;;;;;5065597;28;20202;-45
2023/02/18 07:30:48;;;;;;;0.70;0.60;;;17.20;62.90;;;;;;5066834;28;20194;-45
2023/02/18 07:33:17;;;;;;;0.40;0.33;;;17.20;62.80;;;;;;5068079;28;20194;-45
2023/02/18 07:35:51;;;;;;;0.67;0.40;;;17.30;62.90;;;;;;5064386;28;20200;-45
2023/02/18 07:38:21;;;;;;;0.60;0.60;;;17.30;62.90;;;;;;5065941;28;20211;-45
2023/02/18 07:40:54;;;;;;;0.70;0.70;;;17.30;62.80;;;;;;5044059;28;20216;-45
2023/02/18 07:43:27;;;;;;;0.57;0.57;;;17.30;62.90;;;;;;5048919;28;20197;-45
2023/02/18 07:45:59;;;;;;;0.40;0.40;;;17.20;62.80;;;;;;5064382;28;20202;-45
2023/02/18 07:48:29;;;;;;;1.57;0.63;;;17.20;62.80;;;;;;5067606;28;20188;-50
2023/02/18 07:50:59;;;;;;;1.77;0.40;;;17.30;62.80;;;;;;5067243;28;20213;-45
2023/02/18 07:53:30;;;;;;;0.43;0.40;;;17.30;62.90;;;;;;5058260;28;20255;-45
2023/02/18 07:56:03;;;;;;;0.90;0.43;;;17.20;62.90;;;;;;5057804;28;20205;-45
2023/02/18 07:58:33;;;;;;;0.47;0.40;;;17.20;62.90;;;;;;5066389;28;20206;-45
2023/02/18 08:01:06;;;;;;;1.27;0.70;;;17.20;62.90;;;;;;5029690;28;20202;-45
2023/02/18 08:03:40;;;;;;;0.70;0.47;;;17.30;63.00;;;;;;5058864;28;20193;-45
2023/02/18 08:06:25;;;;;;;0.90;0.77;;;17.30;62.90;;;;;;5063644;28;20185;-45
2023/02/18 08:08:56;;;;;;;0.67;0.40;;;17.30;62.90;;;;;;5050677;28;20201;-45
2023/02/18 08:11:28;;;;;;;0.53;0.40;;;17.20;62.90;;;;;;5062444;28;20198;-45
2023/02/18 08:14:09;;;;;;;1.43;0.57;;;17.20;62.90;;;;;;5066187;28;20251;-45
2023/02/18 08:16:42;;;;;;;2.27;0.43;;;17.20;62.90;;;;;;5048342;28;20254;-47
2023/02/18 08:19:13;;;;;;;0.63;0.40;;;17.20;63.60;;;;;;5069566;28;20244;-47
2023/02/18 08:21:42;;;;;;;1.00;0.70;;;17.20;62.90;;;;;;5065048;28;20714;-46
2023/02/18 08:24:13;;;;;;;1.00;0.80;;;17.20;62.90;;;;;;5064586;28;20206;-46
2023/02/18 08:26:44;;;;;;;2.60;0.70;;;17.30;63.20;;;;;;5059729;28;20204;-45
2023/02/18 08:29:30;;;;;;;2.60;0.90;;;17.20;63.10;;;;;;5045276;28;20213;-45
2023/02/18 08:31:59;;;;;;;1.63;0.60;;;17.30;63.80;;;;;;5046000;28;20578;-45
2023/02/18 08:34:31;;;;;;;3.03;0.60;;;17.30;64.00;;;;;;5065416;28;20218;-46
2023/02/18 08:37:02;;;;;;;2.13;0.80;;;17.30;64.10;;;;;;5063408;28;20213;-45
2023/02/18 08:39:40;;;;;;;2.33;0.70;;;17.30;64.00;;;;;;5058715;28;20259;-44
2023/02/18 08:42:08;;;;;;;3.23;1.00;;;17.30;64.10;;;;;;5065260;28;20228;-45
2023/02/18 08:44:42;;;;;;;1.97;0.70;;;17.30;63.90;;;;;;5065454;28;20205;-45
2023/02/18 08:47:16;;;;;;;1.53;0.70;;;17.30;63.90;;;;;;5067429;28;20205;-45
2023/02/18 08:50:13;;;;;;;328.63;70.57;;;17.40;64.10;;;;;;5066847;28;20190;-45
2023/02/18 08:52:47;;;;;;;206.37;50.47;;;17.40;64.30;;;;;;5063840;28;20252;-45
2023/02/18 08:55:23;;;;;;;189.77;43.80;;;17.40;64.20;;;;;;5067368;28;20209;-45
2023/02/18 08:58:05;;;;;;;157.77;36.73;;;17.40;63.90;;;;;;5070288;28;20220;-45
2023/02/18 09:00:38;;;;;;;136.07;33.77;;;17.40;63.70;;;;;;5053328;28;20194;-45
2023/02/18 09:03:15;;;;;;;153.37;35.87;;;17.50;63.80;;;;;;5050487;28;20224;-45
2023/02/18 09:05:45;;;;;;;133.37;32.40;;;17.50;63.60;;;;;;5064022;28;20253;-45
2023/02/18 09:08:18;;;;;;;128.87;31.10;;;17.50;63.50;;;;;;5066900;28;20201;-45
2023/02/18 09:10:53;;;;;;;108.53;29.13;;;17.50;63.30;;;;;;5070932;28;20237;-45
2023/02/18 09:13:23;;;;;;;98.10;25.67;;;17.50;63.10;;;;;;5067823;28;20204;-45
2023/02/18 09:16:04;;;;;;;90.03;24.97;;;17.50;63.00;;;;;;5047873;28;20286;-45
2023/02/18 09:18:38;;;;;;;79.70;22.73;;;17.60;63.00;;;;;;5053370;28;20196;-45
2023/02/18 09:21:11;;;;;;;77.70;21.07;;;17.60;62.80;;;;;;5071786;28;20638;-45
2023/02/18 09:23:40;;;;;;;68.63;19.67;;;17.60;62.80;;;;;;5070621;28;20198;-45
2023/02/18 09:26:13;;;;;;;63.20;18.70;;;17.60;63.30;;;;;;5091365;28;20189;-45
2023/02/18 09:28:48;;;;;;;64.23;17.70;;;17.60;62.70;;;;;;5074739;28;20209;-45
2023/02/18 09:31:21;;;;;;;55.83;16.93;;;17.50;62.60;;;;;;5087168;28;20517;-50
2023/02/18 09:33:57;;;;;;;54.03;16.43;;;17.60;62.60;;;;;;5037100;28;20197;-45
2023/02/18 09:36:28;;;;;;;51.20;13.63;;;17.60;62.50;;;;;;5060740;28;20194;-45
2023/02/18 09:39:01;;;;;;;47.23;13.63;;;17.60;62.40;;;;;;5053907;28;20204;-47
2023/02/18 09:41:45;;;;;;;43.17;12.47;;;17.60;62.30;;;;;;5079916;28;20224;-45
2023/02/18 09:44:31;;;;;;;35.60;11.43;;;17.60;62.30;;;;;;5089652;28;20219;-47
2023/02/18 09:47:26;;;;;;;34.07;10.97;;;17.60;62.30;;;;;;5069430;28;20219;-45
2023/02/18 09:50:12;;;;;;;29.10;9.73;;;17.60;62.60;;;;;;5029740;28;20831;-45
2023/02/18 09:53:02;;;;;;;33.63;9.37;;;17.60;62.60;;;;;;5040819;28;20638;-47
2023/02/18 09:55:45;;;;;;;25.60;8.40;;;17.60;62.50;;;;;;5080953;28;20213;-47
2023/02/18 09:58:22;;;;;;;23.47;7.87;;;17.60;62.40;;;;;;5069640;28;20204;-46
2023/02/18 10:01:05;;;;;;;26.43;7.93;;;17.60;62.30;;;;;;5078502;28;20194;-46
2023/02/18 10:03:34;;;;;;;18.43;7.10;;;17.60;62.30;;;;;;5071984;28;20208;-46
2023/02/18 10:06:18;;;;;;;17.97;6.20;;;17.60;62.30;;;;;;5075543;28;20275;-45
2023/02/18 10:08:51;;;;;;;23.37;6.57;;;17.60;62.20;;;;;;5068897;28;20197;-46
2023/02/18 10:11:39;;;;;;;16.73;5.20;;;17.60;62.20;;;;;;5063387;28;20197;-46
2023/02/18 10:14:14;;;;;;;16.57;5.03;;;17.60;62.10;;;;;;5072625;28;20715;-46
2023/02/18 10:16:48;;;;;;;14.23;4.60;;;17.60;62.10;;;;;;5053174;28;20206;-46
2023/02/18 10:19:27;;;;;;;18.97;5.23;;;17.70;62.20;;;;;;5072519;28;20209;-46
2023/02/18 10:21:56;;;;;;;15.70;4.73;;;17.60;62.20;;;;;;5068069;28;20240;-45
2023/02/18 10:24:43;;;;;;;13.63;4.07;;;17.70;62.20;;;;;;5072216;28;20517;-45
2023/02/18 10:27:40;;;;;;;11.33;3.90;;;17.70;62.10;;;;;;5089054;28;20573;-45
2023/02/18 10:30:42;;;;;;;15.10;3.90;;;17.60;62.00;;;;;;5076320;28;20346;-45
2023/02/18 10:33:33;;;;;;;12.57;4.03;;;17.70;62.10;;;;;;5076588;28;20536;-45
2023/02/18 10:36:24;;;;;;;11.97;3.50;;;17.70;62.10;;;;;;5087442;28;20205;-45
2023/02/18 10:39:32;;;;;;;8.47;3.03;;;17.60;62.00;;;;;;5078490;28;20542;-45
2023/02/18 10:42:31;;;;;;;6.63;2.57;;;17.70;62.20;;;;;;5079926;28;20209;-45
2023/02/18 10:45:34;;;;;;;6.07;2.40;;;17.70;62.20;;;;;;5078596;28;20189;-45
2023/02/18 10:48:48;;;;;;;8.73;2.90;;;17.70;62.10;;;;;;5089384;28;20197;-45
2023/02/18 10:51:24;;;;;;;7.00;2.70;;;17.70;62.10;;;;;;5087455;28;20200;-45
2023/02/18 10:53:53;;;;;;;7.27;2.70;;;17.70;62.00;;;;;;5064310;28;20193;-45
2023/02/18 10:56:49;;;;;;;6.70;2.17;;;17.70;62.00;;;;;;5074358;28;20278;-46
2023/02/18 10:59:31;;;;;;;7.70;2.60;;;17.70;61.90;;;;;;5050221;28;20185;-45
2023/02/18 11:02:13;;;;;;;7.60;2.40;;;17.70;62.00;;;;;;5071430;28;20638;-45
2023/02/18 11:04:45;;;;;;;7.43;2.33;;;17.70;62.10;;;;;;5085038;28;20218;-45
2023/02/18 11:07:21;;;;;;;6.83;2.37;;;17.70;62.40;;;;;;5068157;28;20202;-45
2023/02/18 11:09:57;;;;;;;6.47;2.10;;;17.80;62.70;;;;;;5072381;28;20197;-45
2023/02/18 11:12:51;;;;;;;5.17;1.77;;;17.80;62.80;;;;;;5090043;28;20535;-45
2023/02/18 11:15:25;;;;;;;6.00;1.97;;;17.80;62.80;;;;;;5088230;28;20692;-45
2023/02/18 11:18:11;;;;;;;8.87;2.30;;;17.80;62.90;;;;;;5066349;28;20201;-45
2023/02/18 11:20:54;;;;;;;5.80;2.03;;;17.80;62.90;;;;;;5062884;28;20236;-45
2023/02/18 11:23:24;;;;;;;6.13;1.60;;;17.80;63.00;;;;;;5062583;28;20259;-45
2023/02/18 11:26:11;;;;;;;10.57;2.40;;;17.80;62.90;;;;;;5069957;28;20228;-45
2023/02/18 11:28:51;;;;;;;9.40;2.10;;;17.80;62.90;;;;;;5067743;28;20697;-45
2023/02/18 11:31:38;;;;;;;6.43;2.17;;;17.80;62.80;;;;;;5047039;28;20197;-45
2023/02/18 11:34:21;;;;;;;5.30;1.83;;;17.80;61.70;;;;;;5034950;28;20255;-45
2023/02/18 11:36:53;;;;;;;6.27;1.90;;;17.80;61.70;;;;;;5063019;28;20205;-45
2023/02/18 11:39:27;;;;;;;4.93;1.53;;;17.80;61.70;;;;;;5066584;28;20745;-45
2023/02/18 11:41:59;;;;;;;6.40;1.97;;;17.80;61.70;;;;;;5026561;28;20206;-45
2023/02/18 11:44:54;;;;;;;3.90;1.83;;;17.80;61.70;;;;;;5050834;28;20613;-45
2023/02/18 11:47:34;;;;;;;3.57;1.67;;;17.80;61.50;;;;;;5049565;28;20377;-46
2023/02/18 11:50:30;;;;;;;4.43;1.70;;;17.80;61.60;;;;;;5066047;28;20282;-48
2023/02/18 11:52:59;;;;;;;5.00;1.87;;;17.80;61.60;;;;;;5063482;28;20259;-46
2023/02/18 11:55:31;;;;;;;5.60;1.93;;;17.80;61.60;;;;;;5070992;28;20229;-46
2023/02/18 11:58:04;;;;;;;3.87;1.63;;;17.80;61.60;;;;;;5060108;28;20221;-46
2023/02/18 12:00:45;;;;;;;4.60;1.80;;;17.80;61.60;;;;;;5069812;28;20586;-45
2023/02/18 12:03:39;;;;;;;3.37;1.90;;;17.80;61.70;;;;;;5047862;28;20228;-45
2023/02/18 12:06:21;;;;;;;4.50;2.00;;;17.70;61.80;;;;;;5064929;28;20194;-46
2023/02/18 12:08:59;;;;;;;3.97;1.80;;;17.80;62.00;;;;;;5064469;28;20697;-46
2023/02/18 12:11:45;;;;;;;3.27;1.70;;;17.70;62.00;;;;;;5044055;28;20210;-45
2023/02/18 12:14:21;;;;;;;4.30;1.83;;;17.70;62.00;;;;;;5049956;28;20186;-45
2023/02/18 12:17:12;;;;;;;3.13;1.60;;;17.80;62.20;;;;;;5046803;28;20206;-46
2023/02/18 12:20:16;;;;;;;2.80;1.80;;;17.70;62.10;;;;;;5063006;28;20200;-45
2023/02/18 12:23:21;;;;;;;3.67;1.97;;;17.70;62.00;;;;;;5077310;28;20615;-46
2023/02/18 12:26:04;;;;;;;4.93;1.63;;;17.70;66.00;;;;;;5078483;28;20192;-45
2023/02/18 12:29:02;;;;;;;4.97;2.30;;;17.70;62.10;;;;;;5077453;28;20217;-45
2023/02/18 12:32:11;;;;;;;4.30;1.80;;;17.70;62.10;;;;;;5075684;28;20191;-45
2023/02/18 12:35:13;;;;;;;3.93;1.77;;;17.70;62.10;;;;;;5088097;28;20567;-45
2023/02/18 12:37:51;;;;;;;4.87;1.90;;;17.70;62.30;;;;;;5080115;28;20232;-45
2023/02/18 12:40:36;;;;;;;3.47;1.60;;;17.70;62.20;;;;;;5086808;28;20211;-45
2023/02/18 12:43:41;;;;;;;3.30;1.70;;;17.70;62.10;;;;;;5088199;28;20193;-45
2023/02/18 12:46:51;;;;;;;2.37;1.80;;;17.70;62.00;;;;;;5087473;28;20562;-46
2023/02/18 12:49:56;;;;;;;3.07;1.50;;;17.70;62.00;;;;;;5088929;28;20189;-45
2023/02/18 12:53:03;;;;;;;2.03;1.37;;;17.70;62.10;;;;;;5081461;28;20219;-45
2023/02/18 12:55:44;;;;;;;3.37;1.53;;;17.70;62.00;;;;;;5083641;28;20225;-46
2023/02/18 12:58:35;;;;;;;3.70;1.90;;;17.70;62.30;;;;;;5079557;28;20182;-46
2023/02/18 13:01:21;;;;;;;3.60;1.70;;;17.70;62.20;;;;;;5077912;28;20205;-46
2023/02/18 13:04:16;;;;;;;3.30;1.60;;;17.60;62.00;;;;;;5078776;28;20236;-46
2023/02/18 13:07:12;;;;;;;4.67;1.70;;;17.60;62.20;;;;;;5073910;28;20584;-45
2023/02/18 13:10:05;;;;;;;3.17;1.87;;;17.60;62.20;;;;;;5085741;28;20223;-46
2023/02/18 13:12:58;;;;;;;3.90;1.50;;;17.60;62.20;;;;;;5082199;28;20185;-45
2023/02/18 13:16:03;;;;;;;4.73;1.30;;;17.60;62.80;;;;;;5087393;28;20209;-46
2023/02/18 13:18:45;;;;;;;2.93;1.63;;;17.60;62.20;;;;;;4998806;28;20215;-46
2023/02/18 13:21:16;;;;;;;5.13;1.90;;;17.60;62.20;;;;;;4978769;28;20316;-46
2023/02/18 13:23:56;;;;;;;2.43;1.73;;;17.60;62.20;;;;;;4968748;28;20201;-46
2023/02/18 13:26:33;;;;;;;3.83;1.70;;;17.60;62.30;;;;;;4971196;28;20231;-46
2023/02/18 13:29:14;;;;;;;4.10;1.70;;;17.60;62.10;;;;;;5045768;28;20224;-46
2023/02/18 13:32:37;;;;;;;4.47;2.10;;;17.60;62.30;;;;;;5041166;28;20587;-45
2023/02/18 13:35:23;;;;;;;3.37;1.40;;;17.60;62.30;;;;;;4996524;28;20285;-45
2023/02/18 13:38:09;;;;;;;2.17;1.77;;;17.60;62.40;;;;;;4999606;28;20589;-45
2023/02/18 13:40:43;;;;;;;2.80;1.60;;;17.60;62.30;;;;;;5002006;28;20314;-45
2023/02/18 13:43:33;;;;;;;3.10;1.50;;;17.60;62.30;;;;;;4994754;28;20210;-45